sensor_id;sensor_type;location;lat;lon;timestamp;P1;durP1;ratioP1;P2;durP2;ratioP2
26686;SDS011;14298;50.900;4.648;2022-08-03T00:01:23;3.57;;;1.80;;
26686;SDS011;14298;50.900;4.648;2022-08-03T00:03:52;4.03;;;1.83;;
26686;SDS011;14298;50.900;4.648;2022-08-03T00:06:20;4.50;;;1.80;;
26686;SDS011;14298;50.900;4.648;2022-08-03T00:08:49;5.83;;;2.00;;
26686;SDS011;14298;50.900;4.648;2022-08-03T00:11:20;6.03;;;1.87;;
26686;SDS011;14298;50.900;4.648;2022-08-03T00:13:49;2.53;;;1.43;;
26686;SDS011;14298;50.900;4.648;2022-08-03T00:16:19;3.40;;;1.47;;
26686;SDS011;14298;50.900;4.648;2022-08-03T00:18:47;4.40;;;2.00;;
26686;SDS011;14298;50.900;4.648;2022-08-03T00:21:16;5.80;;;1.83;;
26686;SDS011;14298;50.900;4.648;2022-08-03T00:23:46;3.50;;;1.70;;
26686;SDS011;14298;50.900;4.648;2022-08-03T00:26:15;5.07;;;1.60;;
26686;SDS011;14298;50.900;4.648;2022-08-03T00:28:44;1.47;;;1.30;;
26686;SDS011;14298;50.900;4.648;2022-08-03T00:31:19;3.27;;;1.37;;
26686;SDS011;14298;50.900;4.648;2022-08-03T00:33:44;2.40;;;1.77;;
26686;SDS011;14298;50.900;4.648;2022-08-03T00:36:13;6.57;;;1.70;;
26686;SDS011;14298;50.900;4.648;2022-08-03T00:38:41;2.73;;;1.60;;
26686;SDS011;14298;50.900;4.648;2022-08-03T00:41:09;1.93;;;1.57;;
26686;SDS011;14298;50.900;4.648;2022-08-03T00:43:42;3.97;;;1.90;;
26686;SDS011;14298;50.900;4.648;2022-08-03T00:46:11;2.33;;;1.53;;
26686;SDS011;14298;50.900;4.648;2022-08-03T00:48:40;4.83;;;1.80;;
26686;SDS011;14298;50.900;4.648;2022-08-03T00:51:10;4.93;;;1.73;;
26686;SDS011;14298;50.900;4.648;2022-08-03T00:53:38;4.13;;;1.60;;
26686;SDS011;14298;50.900;4.648;2022-08-03T00:56:11;2.33;;;1.70;;
26686;SDS011;14298;50.900;4.648;2022-08-03T00:58:43;6.83;;;1.70;;
26686;SDS011;14298;50.900;4.648;2022-08-03T01:01:15;4.07;;;1.87;;
26686;SDS011;14298;50.900;4.648;2022-08-03T01:03:46;2.77;;;1.70;;
26686;SDS011;14298;50.900;4.648;2022-08-03T01:06:28;6.97;;;1.60;;
26686;SDS011;14298;50.900;4.648;2022-08-03T01:12:21;2.87;;;1.73;;
26686;SDS011;14298;50.900;4.648;2022-08-03T01:15:04;6.77;;;1.87;;
26686;SDS011;14298;50.900;4.648;2022-08-03T01:17:50;5.20;;;1.70;;
26686;SDS011;14298;50.900;4.648;2022-08-03T01:20:46;6.73;;;1.77;;
26686;SDS011;14298;50.900;4.648;2022-08-03T01:23:26;4.50;;;1.60;;
26686;SDS011;14298;50.900;4.648;2022-08-03T01:29:47;5.03;;;1.70;;
26686;SDS011;14298;50.900;4.648;2022-08-03T01:31:38;8.53;;;2.10;;
26686;SDS011;14298;50.900;4.648;2022-08-03T01:34:14;4.93;;;1.60;;
26686;SDS011;14298;50.900;4.648;2022-08-03T01:36:50;6.07;;;1.80;;
26686;SDS011;14298;50.900;4.648;2022-08-03T01:39:20;4.37;;;1.90;;
26686;SDS011;14298;50.900;4.648;2022-08-03T01:41:59;2.43;;;1.60;;
26686;SDS011;14298;50.900;4.648;2022-08-03T01:44:29;6.30;;;2.03;;
26686;SDS011;14298;50.900;4.648;2022-08-03T01:47:00;5.80;;;1.90;;
26686;SDS011;14298;50.900;4.648;2022-08-03T01:49:34;7.97;;;2.07;;
26686;SDS011;14298;50.900;4.648;2022-08-03T01:52:05;3.30;;;1.53;;
26686;SDS011;14298;50.900;4.648;2022-08-03T01:54:36;3.90;;;1.90;;
26686;SDS011;14298;50.900;4.648;2022-08-03T01:57:11;4.27;;;1.80;;
26686;SDS011;14298;50.900;4.648;2022-08-03T01:59:39;4.57;;;2.00;;
26686;SDS011;14298;50.900;4.648;2022-08-03T02:02:11;3.43;;;1.47;;
26686;SDS011;14298;50.900;4.648;2022-08-03T02:04:44;8.00;;;1.90;;
26686;SDS011;14298;50.900;4.648;2022-08-03T02:07:14;4.70;;;2.27;;
26686;SDS011;14298;50.900;4.648;2022-08-03T02:09:46;3.33;;;2.03;;
26686;SDS011;14298;50.900;4.648;2022-08-03T02:12:17;2.93;;;1.83;;
26686;SDS011;14298;50.900;4.648;2022-08-03T02:14:48;4.97;;;2.00;;
26686;SDS011;14298;50.900;4.648;2022-08-03T02:17:19;4.30;;;1.93;;
26686;SDS011;14298;50.900;4.648;2022-08-03T02:19:51;4.87;;;2.20;;
26686;SDS011;14298;50.900;4.648;2022-08-03T02:22:22;5.07;;;2.17;;
26686;SDS011;14298;50.900;4.648;2022-08-03T02:24:51;5.00;;;2.00;;
26686;SDS011;14298;50.900;4.648;2022-08-03T02:27:21;3.90;;;1.80;;
26686;SDS011;14298;50.900;4.648;2022-08-03T02:30:10;4.10;;;1.90;;
26686;SDS011;14298;50.900;4.648;2022-08-03T02:32:40;7.43;;;1.70;;
26686;SDS011;14298;50.900;4.648;2022-08-03T02:35:12;3.80;;;1.83;;
26686;SDS011;14298;50.900;4.648;2022-08-03T02:37:45;3.47;;;1.70;;
26686;SDS011;14298;50.900;4.648;2022-08-03T02:40:18;3.63;;;1.90;;
26686;SDS011;14298;50.900;4.648;2022-08-03T02:42:48;4.57;;;1.70;;
26686;SDS011;14298;50.900;4.648;2022-08-03T02:45:22;5.00;;;2.00;;
26686;SDS011;14298;50.900;4.648;2022-08-03T02:48:05;4.10;;;1.90;;
26686;SDS011;14298;50.900;4.648;2022-08-03T02:50:29;5.07;;;1.97;;
26686;SDS011;14298;50.900;4.648;2022-08-03T02:53:00;4.67;;;2.23;;
26686;SDS011;14298;50.900;4.648;2022-08-03T02:55:32;5.20;;;2.07;;
26686;SDS011;14298;50.900;4.648;2022-08-03T02:58:02;3.87;;;2.00;;
26686;SDS011;14298;50.900;4.648;2022-08-03T03:00:31;3.57;;;2.10;;
26686;SDS011;14298;50.900;4.648;2022-08-03T03:03:01;9.03;;;2.63;;
26686;SDS011;14298;50.900;4.648;2022-08-03T03:05:33;5.73;;;2.10;;
26686;SDS011;14298;50.900;4.648;2022-08-03T03:08:08;5.30;;;2.53;;
26686;SDS011;14298;50.900;4.648;2022-08-03T03:10:38;7.17;;;2.27;;
26686;SDS011;14298;50.900;4.648;2022-08-03T03:13:07;3.50;;;1.90;;
26686;SDS011;14298;50.900;4.648;2022-08-03T03:15:37;5.93;;;2.23;;
26686;SDS011;14298;50.900;4.648;2022-08-03T03:18:12;3.60;;;2.03;;
26686;SDS011;14298;50.900;4.648;2022-08-03T03:20:45;5.50;;;2.57;;
26686;SDS011;14298;50.900;4.648;2022-08-03T03:23:15;2.80;;;2.30;;
26686;SDS011;14298;50.900;4.648;2022-08-03T03:25:44;4.37;;;2.17;;
26686;SDS011;14298;50.900;4.648;2022-08-03T03:28:14;6.07;;;2.93;;
26686;SDS011;14298;50.900;4.648;2022-08-03T03:30:49;4.53;;;2.37;;
26686;SDS011;14298;50.900;4.648;2022-08-03T03:33:16;4.37;;;2.37;;
26686;SDS011;14298;50.900;4.648;2022-08-03T03:35:45;4.40;;;2.47;;
26686;SDS011;14298;50.900;4.648;2022-08-03T03:38:18;6.57;;;2.33;;
26686;SDS011;14298;50.900;4.648;2022-08-03T03:40:48;4.60;;;2.20;;
26686;SDS011;14298;50.900;4.648;2022-08-03T03:43:17;4.87;;;2.50;;
26686;SDS011;14298;50.900;4.648;2022-08-03T03:45:46;6.60;;;2.50;;
26686;SDS011;14298;50.900;4.648;2022-08-03T03:48:16;5.73;;;2.23;;
26686;SDS011;14298;50.900;4.648;2022-08-03T03:50:45;6.37;;;2.37;;
26686;SDS011;14298;50.900;4.648;2022-08-03T03:53:16;4.07;;;2.43;;
26686;SDS011;14298;50.900;4.648;2022-08-03T03:55:45;5.23;;;2.20;;
26686;SDS011;14298;50.900;4.648;2022-08-03T03:58:15;5.33;;;2.07;;
26686;SDS011;14298;50.900;4.648;2022-08-03T04:00:45;4.53;;;2.37;;
26686;SDS011;14298;50.900;4.648;2022-08-03T04:03:13;3.70;;;1.90;;
26686;SDS011;14298;50.900;4.648;2022-08-03T04:05:44;6.60;;;2.50;;
26686;SDS011;14298;50.900;4.648;2022-08-03T04:08:31;4.90;;;2.17;;
26686;SDS011;14298;50.900;4.648;2022-08-03T04:11:20;5.47;;;2.10;;
26686;SDS011;14298;50.900;4.648;2022-08-03T04:14:46;3.20;;;2.03;;
26686;SDS011;14298;50.900;4.648;2022-08-03T04:16:45;4.23;;;2.10;;
26686;SDS011;14298;50.900;4.648;2022-08-03T04:19:23;5.37;;;2.10;;
26686;SDS011;14298;50.900;4.648;2022-08-03T04:21:54;4.00;;;2.40;;
26686;SDS011;14298;50.900;4.648;2022-08-03T04:24:29;4.87;;;2.20;;
26686;SDS011;14298;50.900;4.648;2022-08-03T04:27:05;6.30;;;2.23;;
26686;SDS011;14298;50.900;4.648;2022-08-03T04:29:34;3.53;;;2.10;;
26686;SDS011;14298;50.900;4.648;2022-08-03T04:32:05;3.67;;;2.10;;
26686;SDS011;14298;50.900;4.648;2022-08-03T04:34:35;2.90;;;2.00;;
26686;SDS011;14298;50.900;4.648;2022-08-03T04:37:07;5.27;;;2.17;;
26686;SDS011;14298;50.900;4.648;2022-08-03T04:39:41;4.40;;;2.03;;
26686;SDS011;14298;50.900;4.648;2022-08-03T04:42:13;9.43;;;2.70;;
26686;SDS011;14298;50.900;4.648;2022-08-03T04:44:47;5.37;;;2.17;;
26686;SDS011;14298;50.900;4.648;2022-08-03T04:47:18;8.87;;;2.27;;
26686;SDS011;14298;50.900;4.648;2022-08-03T04:49:46;5.13;;;2.10;;
26686;SDS011;14298;50.900;4.648;2022-08-03T04:52:15;5.07;;;2.23;;
26686;SDS011;14298;50.900;4.648;2022-08-03T04:54:44;5.03;;;2.17;;
26686;SDS011;14298;50.900;4.648;2022-08-03T04:57:13;8.00;;;2.30;;
26686;SDS011;14298;50.900;4.648;2022-08-03T04:59:44;4.77;;;2.30;;
26686;SDS011;14298;50.900;4.648;2022-08-03T05:02:14;7.43;;;2.33;;
26686;SDS011;14298;50.900;4.648;2022-08-03T05:04:43;5.60;;;2.30;;
26686;SDS011;14298;50.900;4.648;2022-08-03T05:07:13;3.00;;;2.17;;
26686;SDS011;14298;50.900;4.648;2022-08-03T05:09:45;4.23;;;2.03;;
26686;SDS011;14298;50.900;4.648;2022-08-03T05:12:13;5.07;;;2.30;;
26686;SDS011;14298;50.900;4.648;2022-08-03T05:14:42;6.87;;;2.10;;
26686;SDS011;14298;50.900;4.648;2022-08-03T05:17:11;6.00;;;2.53;;
26686;SDS011;14298;50.900;4.648;2022-08-03T05:19:39;4.10;;;1.80;;
26686;SDS011;14298;50.900;4.648;2022-08-03T05:22:07;6.07;;;2.50;;
26686;SDS011;14298;50.900;4.648;2022-08-03T05:24:36;9.33;;;2.10;;
26686;SDS011;14298;50.900;4.648;2022-08-03T05:27:04;3.10;;;1.70;;
26686;SDS011;14298;50.900;4.648;2022-08-03T05:29:34;6.10;;;2.03;;
26686;SDS011;14298;50.900;4.648;2022-08-03T05:32:03;6.03;;;1.87;;
26686;SDS011;14298;50.900;4.648;2022-08-03T05:34:41;7.60;;;1.83;;
26686;SDS011;14298;50.900;4.648;2022-08-03T05:37:10;3.50;;;1.70;;
26686;SDS011;14298;50.900;4.648;2022-08-03T05:39:38;2.90;;;1.57;;
26686;SDS011;14298;50.900;4.648;2022-08-03T05:42:08;9.47;;;2.10;;
26686;SDS011;14298;50.900;4.648;2022-08-03T05:44:37;7.13;;;1.80;;
26686;SDS011;14298;50.900;4.648;2022-08-03T05:47:05;7.43;;;1.63;;
26686;SDS011;14298;50.900;4.648;2022-08-03T05:49:34;3.37;;;1.67;;
26686;SDS011;14298;50.900;4.648;2022-08-03T05:52:02;3.57;;;1.67;;
26686;SDS011;14298;50.900;4.648;2022-08-03T05:54:31;5.70;;;1.70;;
26686;SDS011;14298;50.900;4.648;2022-08-03T05:56:59;7.07;;;1.50;;
26686;SDS011;14298;50.900;4.648;2022-08-03T05:59:28;3.63;;;1.73;;
26686;SDS011;14298;50.900;4.648;2022-08-03T06:01:56;7.17;;;1.53;;
26686;SDS011;14298;50.900;4.648;2022-08-03T06:04:24;5.03;;;1.60;;
26686;SDS011;14298;50.900;4.648;2022-08-03T06:06:52;4.00;;;1.60;;
26686;SDS011;14298;50.900;4.648;2022-08-03T06:09:21;3.47;;;1.43;;
26686;SDS011;14298;50.900;4.648;2022-08-03T06:11:49;5.37;;;1.30;;
26686;SDS011;14298;50.900;4.648;2022-08-03T06:14:17;4.07;;;1.23;;
26686;SDS011;14298;50.900;4.648;2022-08-03T06:16:46;4.60;;;1.43;;
26686;SDS011;14298;50.900;4.648;2022-08-03T06:19:14;6.50;;;1.87;;
26686;SDS011;14298;50.900;4.648;2022-08-03T06:21:42;3.83;;;1.50;;
26686;SDS011;14298;50.900;4.648;2022-08-03T06:24:11;3.40;;;1.70;;
26686;SDS011;14298;50.900;4.648;2022-08-03T06:26:39;6.62;;;1.07;;
26686;SDS011;14298;50.900;4.648;2022-08-03T06:29:07;5.40;;;1.52;;
26686;SDS011;14298;50.900;4.648;2022-08-03T06:31:36;3.42;;;1.55;;
26686;SDS011;14298;50.900;4.648;2022-08-03T06:34:04;5.30;;;1.50;;
26686;SDS011;14298;50.900;4.648;2022-08-03T06:36:33;3.02;;;1.07;;
26686;SDS011;14298;50.900;4.648;2022-08-03T06:39:02;3.80;;;1.20;;
26686;SDS011;14298;50.900;4.648;2022-08-03T06:41:31;5.50;;;1.40;;
26686;SDS011;14298;50.900;4.648;2022-08-03T06:43:59;3.95;;;1.40;;
26686;SDS011;14298;50.900;4.648;2022-08-03T06:46:27;4.72;;;1.37;;
26686;SDS011;14298;50.900;4.648;2022-08-03T06:48:56;3.70;;;1.12;;
26686;SDS011;14298;50.900;4.648;2022-08-03T06:51:24;16.60;;;2.62;;
26686;SDS011;14298;50.900;4.648;2022-08-03T06:53:52;5.25;;;1.30;;
26686;SDS011;14298;50.900;4.648;2022-08-03T06:56:21;7.60;;;1.17;;
26686;SDS011;14298;50.900;4.648;2022-08-03T06:58:49;6.17;;;1.12;;
26686;SDS011;14298;50.900;4.648;2022-08-03T07:01:17;4.85;;;1.17;;
26686;SDS011;14298;50.900;4.648;2022-08-03T07:03:46;4.03;;;1.07;;
26686;SDS011;14298;50.900;4.648;2022-08-03T07:06:14;3.35;;;1.07;;
26686;SDS011;14298;50.900;4.648;2022-08-03T07:08:42;3.92;;;1.10;;
26686;SDS011;14298;50.900;4.648;2022-08-03T07:11:10;4.08;;;1.00;;
26686;SDS011;14298;50.900;4.648;2022-08-03T07:13:39;9.23;;;1.37;;
26686;SDS011;14298;50.900;4.648;2022-08-03T07:16:07;2.67;;;1.20;;
26686;SDS011;14298;50.900;4.648;2022-08-03T07:18:37;4.53;;;1.20;;
26686;SDS011;14298;50.900;4.648;2022-08-03T07:21:06;4.80;;;1.20;;
26686;SDS011;14298;50.900;4.648;2022-08-03T07:23:36;4.50;;;1.40;;
26686;SDS011;14298;50.900;4.648;2022-08-03T07:26:05;7.97;;;1.20;;
26686;SDS011;14298;50.900;4.648;2022-08-03T07:28:33;4.03;;;1.00;;
26686;SDS011;14298;50.900;4.648;2022-08-03T07:31:01;7.90;;;1.27;;
26686;SDS011;14298;50.900;4.648;2022-08-03T07:33:30;8.35;;;1.20;;
26686;SDS011;14298;50.900;4.648;2022-08-03T07:35:58;8.70;;;1.35;;
26686;SDS011;14298;50.900;4.648;2022-08-03T07:38:27;7.95;;;1.60;;
26686;SDS011;14298;50.900;4.648;2022-08-03T07:40:55;14.80;;;1.15;;
26686;SDS011;14298;50.900;4.648;2022-08-03T07:43:24;5.12;;;1.02;;
26686;SDS011;14298;50.900;4.648;2022-08-03T07:45:52;7.83;;;1.37;;
26686;SDS011;14298;50.900;4.648;2022-08-03T07:48:20;6.40;;;1.30;;
26686;SDS011;14298;50.900;4.648;2022-08-03T07:50:49;8.20;;;1.32;;
26686;SDS011;14298;50.900;4.648;2022-08-03T07:53:18;6.62;;;1.47;;
26686;SDS011;14298;50.900;4.648;2022-08-03T07:55:46;5.83;;;1.22;;
26686;SDS011;14298;50.900;4.648;2022-08-03T07:58:14;12.25;;;1.40;;
26686;SDS011;14298;50.900;4.648;2022-08-03T08:00:44;5.90;;;1.12;;
26686;SDS011;14298;50.900;4.648;2022-08-03T08:03:13;11.63;;;1.50;;
26686;SDS011;14298;50.900;4.648;2022-08-03T08:05:41;10.45;;;2.02;;
26686;SDS011;14298;50.900;4.648;2022-08-03T08:08:09;9.28;;;1.87;;
26686;SDS011;14298;50.900;4.648;2022-08-03T08:10:38;7.22;;;1.57;;
26686;SDS011;14298;50.900;4.648;2022-08-03T08:13:06;8.10;;;1.50;;
26686;SDS011;14298;50.900;4.648;2022-08-03T08:15:35;12.25;;;1.65;;
26686;SDS011;14298;50.900;4.648;2022-08-03T08:18:03;8.40;;;1.55;;
26686;SDS011;14298;50.900;4.648;2022-08-03T08:20:32;8.00;;;2.05;;
26686;SDS011;14298;50.900;4.648;2022-08-03T08:23:05;12.43;;;2.02;;
26686;SDS011;14298;50.900;4.648;2022-08-03T08:25:34;7.67;;;1.30;;
26686;SDS011;14298;50.900;4.648;2022-08-03T08:28:04;11.18;;;1.77;;
26686;SDS011;14298;50.900;4.648;2022-08-03T08:30:32;4.72;;;1.95;;
26686;SDS011;14298;50.900;4.648;2022-08-03T08:33:01;6.00;;;1.50;;
26686;SDS011;14298;50.900;4.648;2022-08-03T08:35:29;7.50;;;1.62;;
26686;SDS011;14298;50.900;4.648;2022-08-03T08:37:58;7.78;;;1.70;;
26686;SDS011;14298;50.900;4.648;2022-08-03T08:40:27;7.40;;;1.50;;
26686;SDS011;14298;50.900;4.648;2022-08-03T08:42:56;6.05;;;1.65;;
26686;SDS011;14298;50.900;4.648;2022-08-03T08:45:24;9.23;;;1.32;;
26686;SDS011;14298;50.900;4.648;2022-08-03T08:47:54;7.05;;;1.75;;
26686;SDS011;14298;50.900;4.648;2022-08-03T08:50:23;8.20;;;1.35;;
26686;SDS011;14298;50.900;4.648;2022-08-03T08:52:52;5.35;;;1.67;;
26686;SDS011;14298;50.900;4.648;2022-08-03T08:55:21;10.85;;;1.42;;
26686;SDS011;14298;50.900;4.648;2022-08-03T08:57:56;9.78;;;1.50;;
26686;SDS011;14298;50.900;4.648;2022-08-03T09:00:24;6.83;;;1.40;;
26686;SDS011;14298;50.900;4.648;2022-08-03T09:02:53;8.68;;;1.77;;
26686;SDS011;14298;50.900;4.648;2022-08-03T09:05:21;4.40;;;1.22;;
26686;SDS011;14298;50.900;4.648;2022-08-03T09:07:50;6.17;;;1.60;;
26686;SDS011;14298;50.900;4.648;2022-08-03T09:10:19;6.15;;;1.50;;
26686;SDS011;14298;50.900;4.648;2022-08-03T09:12:49;6.12;;;1.02;;
26686;SDS011;14298;50.900;4.648;2022-08-03T09:15:18;6.83;;;1.30;;
26686;SDS011;14298;50.900;4.648;2022-08-03T09:17:57;6.55;;;1.25;;
26686;SDS011;14298;50.900;4.648;2022-08-03T09:20:22;7.85;;;1.50;;
26686;SDS011;14298;50.900;4.648;2022-08-03T09:22:53;5.80;;;1.62;;
26686;SDS011;14298;50.900;4.648;2022-08-03T09:25:35;10.03;;;1.47;;
26686;SDS011;14298;50.900;4.648;2022-08-03T09:28:10;14.47;;;2.33;;
26686;SDS011;14298;50.900;4.648;2022-08-03T09:30:44;6.30;;;1.42;;
26686;SDS011;14298;50.900;4.648;2022-08-03T09:33:14;4.28;;;1.15;;
26686;SDS011;14298;50.900;4.648;2022-08-03T09:35:43;7.17;;;1.37;;
26686;SDS011;14298;50.900;4.648;2022-08-03T09:38:14;6.15;;;1.12;;
26686;SDS011;14298;50.900;4.648;2022-08-03T09:40:44;3.33;;;0.88;;
26686;SDS011;14298;50.900;4.648;2022-08-03T09:43:13;4.87;;;0.70;;
26686;SDS011;14298;50.900;4.648;2022-08-03T09:45:41;6.12;;;1.27;;
26686;SDS011;14298;50.900;4.648;2022-08-03T09:50:56;10.98;;;1.42;;
26686;SDS011;14298;50.900;4.648;2022-08-03T09:53:26;10.90;;;1.42;;
26686;SDS011;14298;50.900;4.648;2022-08-03T09:55:58;4.40;;;1.00;;
26686;SDS011;14298;50.900;4.648;2022-08-03T09:58:28;8.40;;;1.40;;
26686;SDS011;14298;50.900;4.648;2022-08-03T10:01:06;4.37;;;1.12;;
26686;SDS011;14298;50.900;4.648;2022-08-03T10:03:32;9.33;;;1.47;;
26686;SDS011;14298;50.900;4.648;2022-08-03T10:06:15;6.40;;;1.70;;
26686;SDS011;14298;50.900;4.648;2022-08-03T10:08:45;3.62;;;1.00;;
26686;SDS011;14298;50.900;4.648;2022-08-03T10:11:28;7.75;;;1.05;;
26686;SDS011;14298;50.900;4.648;2022-08-03T10:13:58;6.97;;;1.20;;
26686;SDS011;14298;50.900;4.648;2022-08-03T10:16:38;1.85;;;0.80;;
26686;SDS011;14298;50.900;4.648;2022-08-03T10:19:04;3.85;;;1.00;;
26686;SDS011;14298;50.900;4.648;2022-08-03T10:21:36;2.52;;;0.78;;
26686;SDS011;14298;50.900;4.648;2022-08-03T10:24:06;5.90;;;0.90;;
26686;SDS011;14298;50.900;4.648;2022-08-03T10:26:38;5.50;;;0.82;;
26686;SDS011;14298;50.900;4.648;2022-08-03T10:29:10;3.80;;;1.00;;
26686;SDS011;14298;50.900;4.648;2022-08-03T10:31:39;8.20;;;1.20;;
26686;SDS011;14298;50.900;4.648;2022-08-03T10:34:14;9.70;;;0.90;;
26686;SDS011;14298;50.900;4.648;2022-08-03T10:36:46;1.70;;;0.85;;
26686;SDS011;14298;50.900;4.648;2022-08-03T10:39:21;6.90;;;0.95;;
26686;SDS011;14298;50.900;4.648;2022-08-03T10:41:50;5.87;;;1.10;;
26686;SDS011;14298;50.900;4.648;2022-08-03T10:44:22;4.78;;;1.00;;
26686;SDS011;14298;50.900;4.648;2022-08-03T10:46:52;7.42;;;1.00;;
26686;SDS011;14298;50.900;4.648;2022-08-03T10:49:22;3.10;;;0.95;;
26686;SDS011;14298;50.900;4.648;2022-08-03T10:51:51;5.03;;;0.85;;
26686;SDS011;14298;50.900;4.648;2022-08-03T10:54:54;3.42;;;0.90;;
26686;SDS011;14298;50.900;4.648;2022-08-03T10:57:03;3.85;;;0.70;;
26686;SDS011;14298;50.900;4.648;2022-08-03T10:59:56;1.98;;;0.88;;
26686;SDS011;14298;50.900;4.648;2022-08-03T11:02:59;5.67;;;1.32;;
26686;SDS011;14298;50.900;4.648;2022-08-03T11:10:45;7.50;;;1.00;;
26686;SDS011;14298;50.900;4.648;2022-08-03T11:13:16;10.65;;;1.12;;
26686;SDS011;14298;50.900;4.648;2022-08-03T11:15:47;2.75;;;0.90;;
26686;SDS011;14298;50.900;4.648;2022-08-03T11:18:17;4.35;;;1.30;;
26686;SDS011;14298;50.900;4.648;2022-08-03T11:20:46;4.97;;;0.80;;
26686;SDS011;14298;50.900;4.648;2022-08-03T11:23:20;2.72;;;0.70;;
26686;SDS011;14298;50.900;4.648;2022-08-03T11:26:16;1.72;;;0.70;;
26686;SDS011;14298;50.900;4.648;2022-08-03T11:28:42;5.37;;;0.90;;
26686;SDS011;14298;50.900;4.648;2022-08-03T11:34:05;11.28;;;0.80;;
26686;SDS011;14298;50.900;4.648;2022-08-03T11:39:43;8.23;;;1.20;;
26686;SDS011;14298;50.900;4.648;2022-08-03T11:44:58;3.08;;;0.93;;
26686;SDS011;14298;50.900;4.648;2022-08-03T11:47:27;5.42;;;0.95;;
26686;SDS011;14298;50.900;4.648;2022-08-03T11:49:57;7.37;;;1.20;;
26686;SDS011;14298;50.900;4.648;2022-08-03T11:52:32;9.50;;;1.10;;
26686;SDS011;14298;50.900;4.648;2022-08-03T11:55:07;4.87;;;0.90;;
26686;SDS011;14298;50.900;4.648;2022-08-03T11:57:37;3.72;;;0.93;;
26686;SDS011;14298;50.900;4.648;2022-08-03T12:00:20;4.42;;;1.20;;
26686;SDS011;14298;50.900;4.648;2022-08-03T12:02:54;6.80;;;0.80;;
26686;SDS011;14298;50.900;4.648;2022-08-03T12:05:34;1.75;;;0.95;;
26686;SDS011;14298;50.900;4.648;2022-08-03T12:08:03;5.37;;;1.10;;
26686;SDS011;14298;50.900;4.648;2022-08-03T12:10:33;3.12;;;0.80;;
26686;SDS011;14298;50.900;4.648;2022-08-03T12:13:03;3.62;;;0.85;;
26686;SDS011;14298;50.900;4.648;2022-08-03T12:15:34;2.45;;;1.02;;
26686;SDS011;14298;50.900;4.648;2022-08-03T12:18:11;10.10;;;1.32;;
26686;SDS011;14298;50.900;4.648;2022-08-03T12:20:41;2.45;;;1.22;;
26686;SDS011;14298;50.900;4.648;2022-08-03T12:23:10;4.62;;;0.93;;
26686;SDS011;14298;50.900;4.648;2022-08-03T12:25:40;2.52;;;0.90;;
26686;SDS011;14298;50.900;4.648;2022-08-03T12:28:17;3.80;;;1.10;;
26686;SDS011;14298;50.900;4.648;2022-08-03T12:30:49;3.98;;;0.80;;
26686;SDS011;14298;50.900;4.648;2022-08-03T12:33:25;7.78;;;1.10;;
26686;SDS011;14298;50.900;4.648;2022-08-03T12:36:12;5.65;;;0.88;;
26686;SDS011;14298;50.900;4.648;2022-08-03T12:38:37;1.77;;;0.90;;
26686;SDS011;14298;50.900;4.648;2022-08-03T12:41:09;5.15;;;0.98;;
26686;SDS011;14298;50.900;4.648;2022-08-03T12:43:48;3.15;;;1.02;;
26686;SDS011;14298;50.900;4.648;2022-08-03T12:46:17;2.17;;;0.93;;
26686;SDS011;14298;50.900;4.648;2022-08-03T12:48:59;4.92;;;1.00;;
26686;SDS011;14298;50.900;4.648;2022-08-03T12:51:30;1.60;;;0.82;;
26686;SDS011;14298;50.900;4.648;2022-08-03T12:54:01;2.22;;;0.80;;
26686;SDS011;14298;50.900;4.648;2022-08-03T12:56:30;8.15;;;1.42;;
26686;SDS011;14298;50.900;4.648;2022-08-03T12:58:58;1.25;;;0.60;;
26686;SDS011;14298;50.900;4.648;2022-08-03T13:01:34;6.10;;;1.07;;
26686;SDS011;14298;50.900;4.648;2022-08-03T13:03:59;4.05;;;0.85;;
26686;SDS011;14298;50.900;4.648;2022-08-03T13:06:27;4.42;;;1.22;;
26686;SDS011;14298;50.900;4.648;2022-08-03T13:09:03;2.47;;;0.72;;
26686;SDS011;14298;50.900;4.648;2022-08-03T13:11:32;7.12;;;1.00;;
26686;SDS011;14298;50.900;4.648;2022-08-03T13:14:01;4.72;;;0.78;;
26686;SDS011;14298;50.900;4.648;2022-08-03T13:16:29;8.60;;;0.90;;
26686;SDS011;14298;50.900;4.648;2022-08-03T13:18:58;3.15;;;0.88;;
26686;SDS011;14298;50.900;4.648;2022-08-03T13:21:26;5.40;;;1.07;;
26686;SDS011;14298;50.900;4.648;2022-08-03T13:23:54;1.80;;;0.78;;
26686;SDS011;14298;50.900;4.648;2022-08-03T13:26:22;3.42;;;1.12;;
26686;SDS011;14298;50.900;4.648;2022-08-03T13:28:51;5.05;;;1.02;;
26686;SDS011;14298;50.900;4.648;2022-08-03T13:31:19;5.05;;;1.42;;
26686;SDS011;14298;50.900;4.648;2022-08-03T13:33:47;1.20;;;0.53;;
26686;SDS011;14298;50.900;4.648;2022-08-03T13:36:16;1.77;;;0.70;;
26686;SDS011;14298;50.900;4.648;2022-08-03T13:38:45;0.70;;;0.60;;
26686;SDS011;14298;50.900;4.648;2022-08-03T13:41:13;4.70;;;0.80;;
26686;SDS011;14298;50.900;4.648;2022-08-03T13:43:42;5.87;;;0.78;;
26686;SDS011;14298;50.900;4.648;2022-08-03T13:46:10;6.75;;;1.02;;
26686;SDS011;14298;50.900;4.648;2022-08-03T13:48:38;6.62;;;0.70;;
26686;SDS011;14298;50.900;4.648;2022-08-03T13:51:07;2.72;;;0.75;;
26686;SDS011;14298;50.900;4.648;2022-08-03T13:53:35;4.47;;;1.02;;
26686;SDS011;14298;50.900;4.648;2022-08-03T13:56:03;4.90;;;0.80;;
26686;SDS011;14298;50.900;4.648;2022-08-03T13:58:31;1.20;;;0.60;;
26686;SDS011;14298;50.900;4.648;2022-08-03T14:01:00;5.00;;;0.98;;
26686;SDS011;14298;50.900;4.648;2022-08-03T14:03:28;1.37;;;0.60;;
26686;SDS011;14298;50.900;4.648;2022-08-03T14:05:56;8.70;;;0.95;;
26686;SDS011;14298;50.900;4.648;2022-08-03T14:08:25;4.75;;;0.70;;
26686;SDS011;14298;50.900;4.648;2022-08-03T14:10:53;1.15;;;0.70;;
26686;SDS011;14298;50.900;4.648;2022-08-03T14:13:21;0.95;;;0.70;;
26686;SDS011;14298;50.900;4.648;2022-08-03T14:15:50;2.77;;;0.80;;
26686;SDS011;14298;50.900;4.648;2022-08-03T14:18:19;4.78;;;0.95;;
26686;SDS011;14298;50.900;4.648;2022-08-03T14:20:48;6.17;;;0.80;;
26686;SDS011;14298;50.900;4.648;2022-08-03T14:23:17;2.95;;;0.65;;
26686;SDS011;14298;50.900;4.648;2022-08-03T14:25:46;2.25;;;0.62;;
26686;SDS011;14298;50.900;4.648;2022-08-03T14:28:14;3.80;;;0.75;;
26686;SDS011;14298;50.900;4.648;2022-08-03T14:30:43;5.45;;;0.90;;
26686;SDS011;14298;50.900;4.648;2022-08-03T14:33:12;5.12;;;1.75;;
26686;SDS011;14298;50.900;4.648;2022-08-03T14:35:40;3.95;;;0.70;;
26686;SDS011;14298;50.900;4.648;2022-08-03T14:38:09;1.32;;;0.70;;
26686;SDS011;14298;50.900;4.648;2022-08-03T14:40:37;3.52;;;0.60;;
26686;SDS011;14298;50.900;4.648;2022-08-03T14:43:05;2.83;;;0.80;;
26686;SDS011;14298;50.900;4.648;2022-08-03T14:45:34;4.22;;;0.90;;
26686;SDS011;14298;50.900;4.648;2022-08-03T14:48:02;8.33;;;0.78;;
26686;SDS011;14298;50.900;4.648;2022-08-03T14:50:31;3.27;;;0.98;;
26686;SDS011;14298;50.900;4.648;2022-08-03T14:53:00;3.70;;;0.82;;
26686;SDS011;14298;50.900;4.648;2022-08-03T14:55:28;9.43;;;1.02;;
26686;SDS011;14298;50.900;4.648;2022-08-03T14:57:57;4.83;;;1.10;;
26686;SDS011;14298;50.900;4.648;2022-08-03T15:00:26;3.20;;;0.78;;
26686;SDS011;14298;50.900;4.648;2022-08-03T15:02:55;3.08;;;1.00;;
26686;SDS011;14298;50.900;4.648;2022-08-03T15:05:23;1.65;;;0.80;;
26686;SDS011;14298;50.900;4.648;2022-08-03T15:07:51;1.37;;;0.85;;
26686;SDS011;14298;50.900;4.648;2022-08-03T15:10:20;4.97;;;1.20;;
26686;SDS011;14298;50.900;4.648;2022-08-03T15:12:48;5.22;;;0.55;;
26686;SDS011;14298;50.900;4.648;2022-08-03T15:15:17;2.95;;;0.98;;
26686;SDS011;14298;50.900;4.648;2022-08-03T15:17:45;6.40;;;0.82;;
26686;SDS011;14298;50.900;4.648;2022-08-03T15:20:14;5.47;;;1.17;;
26686;SDS011;14298;50.900;4.648;2022-08-03T15:22:42;2.35;;;0.68;;
26686;SDS011;14298;50.900;4.648;2022-08-03T15:25:10;2.10;;;0.72;;
26686;SDS011;14298;50.900;4.648;2022-08-03T15:27:39;3.67;;;0.70;;
26686;SDS011;14298;50.900;4.648;2022-08-03T15:30:07;2.40;;;0.70;;
26686;SDS011;14298;50.900;4.648;2022-08-03T15:32:36;3.25;;;0.78;;